Latest Weather Observations for McArthur River Mine

IDD60801

Issued at 5:31 pm CST Friday 24 February 2017 (issued every 30 minutes, with the page automatically refreshed every 10 minutes)

About weather observations | Map of weather stations | Latest weather observations for NT | Other Formats
Station Details ID: 014704 Name: MCARTHUR RIVER MINE AIRPORT Lat: -16.44 Lon: 136.08 Height: 40.0 m
Data from the previous 72 hours. | See also: Recent months at McArthur River Mine
Date/Time
CST
Temp
°C
App
Temp
°C
Dew
Point
°C
Rel
Hum
%
Delta-T
°C
Wind Press
QNH
hPa
Press
MSL
hPa
Rain since
9am
mm
Dir  Spd
km/h
Gust
km/h
Spd
kts
Gust
kts
24/05:30pm 33.3 37.0 23.9 58 6.6 E 11 15 6 8 1009.1 1008.8 0.0
24/05:00pm 33.4 36.4 23.4 55 7.0 E 13 17 7 9 1009.0 1008.7 0.0
24/04:30pm 33.4 36.3 22.5 52 7.5 ENE 11 17 6 9 1008.6 1008.3 0.0
24/04:00pm 32.5 34.5 22.9 57 6.6 NE 17 30 9 16 1008.8 1008.5 0.0
24/03:30pm 34.5 37.3 21.5 46 8.8 NNE 9 17 5 9 1009.2 1008.9 0.0
24/03:00pm 34.4 37.3 22.5 50 8.2 NE 11 19 6 10 1009.7 1009.4 0.0
24/02:30pm 33.6 36.3 22.1 51 7.9 NE 11 20 6 11 1010.0 1009.7 0.0
24/02:00pm 34.2 36.9 22.9 51 7.8 NE 13 24 7 13 1010.1 1009.8 0.0
24/01:30pm 33.4 35.5 22.5 52 7.5 NNE 15 28 8 15 1010.8 1010.5 0.0
24/01:00pm 33.8 36.3 23.2 54 7.4 NNE 15 22 8 12 1011.6 1011.3 0.0
24/12:30pm 33.1 35.3 21.9 51 7.6 NE 13 20 7 11 1012.2 1011.9 0.0
24/12:00pm 33.1 37.6 24.6 61 6.0 NE 9 15 5 8 1012.8 1012.5 0.0
24/11:30am 32.5 36.8 24.3 62 5.7 ENE 9 19 5 10 1013.2 1012.9 0.0
24/11:00am 30.9 32.2 20.2 53 7.1 NE 13 20 7 11 1013.6 1013.3 0.0
24/10:30am 30.9 32.6 19.3 50 7.6 E 9 20 5 11 1013.8 1013.5 0.0
24/10:00am 30.1 34.2 24.5 72 3.9 NE 11 19 6 10 1013.9 1013.6 0.0
24/09:30am 29.5 34.1 24.8 76 3.3 NE 9 13 5 7 1014.0 1013.7 0.0
24/09:00am 28.5 33.2 24.9 81 2.5 ENE 9 15 5 8 1013.9 1013.6 0.8
24/08:51am 28.3 32.7 25.1 83 2.2 ENE 11 15 6 8 1013.9 1013.6 0.8
24/08:35am 27.9 32.7 25.1 85 2.0 ENE 9 15 5 8 1013.9 1013.6 0.8
24/08:30am 27.9 32.8 25.3 86 1.8 ENE 9 15 5 8 1013.8 1013.5 0.8
24/08:06am 27.4 31.5 25.2 88 1.5 ENE 13 20 7 11 1013.5 1013.2 0.8
24/08:00am 27.3 31.1 25.3 89 1.4 ENE 15 22 8 12 1013.4 1013.1 0.8
24/07:30am 27.1 31.9 25.7 92 1.0 E 11 17 6 9 1012.9 1012.6 0.8
24/07:00am 26.6 31.7 25.6 94 0.7 ENE 9 15 5 8 1012.6 1012.3 0.8
24/06:30am 26.5 30.7 25.3 93 0.8 ENE 13 20 7 11 1012.5 1012.2 0.8
24/06:09am 26.6 30.8 25.4 93 0.8 ENE 13 19 7 10 1012.0 1011.7 0.8
24/06:00am 26.7 30.9 25.3 92 1.0 ENE 13 19 7 10 1011.9 1011.6 0.8
24/05:49am 26.6 31.2 25.4 93 0.8 ENE 11 19 6 10 1011.8 1011.5 0.8
24/05:30am 26.6 31.7 25.6 94 0.7 E 9 17 5 9 1011.5 1011.2 0.8
24/05:00am 26.5 31.6 25.5 94 0.7 ENE 9 15 5 8 1011.3 1011.0 0.8
24/04:30am 26.6 31.3 25.6 94 0.7 ENE 11 17 6 9 1011.2 1010.9 0.8
24/04:26am 26.6 31.3 25.6 94 0.7 ENE 11 17 6 9 1011.1 1010.8 0.8
24/04:24am 26.6 31.3 25.6 94 0.7 E 11 15 6 8 1011.1 1010.8 0.8
24/04:00am 26.6 31.0 25.6 94 0.7 E 13 20 7 11 1010.8 1010.5 0.8
24/03:42am 26.7 31.5 25.7 94 0.7 ESE 11 17 6 9 1010.7 1010.4 0.8
24/03:30am 26.7 31.1 25.7 94 0.7 E 13 17 7 9 1010.8 1010.5 0.8
24/03:04am 26.7 31.5 25.7 94 0.7 E 11 17 6 9 1010.9 1010.6 0.8
24/03:00am 26.8 31.7 25.8 94 0.7 E 11 17 6 9 1010.9 1010.6 0.8
24/02:30am 26.8 32.1 25.9 95 0.6 E 9 13 5 7 1011.1 1010.8 0.8
24/02:00am 27.1 32.4 25.9 93 0.8 ESE 9 13 5 7 1011.2 1010.9 0.8
24/01:35am 27.1 32.4 25.9 93 0.8 ENE 9 11 5 6 1011.4 1011.1 0.8
24/01:30am 27.0 32.3 25.8 93 0.8 ENE 9 15 5 8 1011.4 1011.1 0.8
24/01:00am 27.1 32.0 25.9 93 0.8 ESE 11 19 6 10 1011.5 1011.2 0.8
24/12:30am 27.2 31.8 26.0 93 0.9 E 13 17 7 9 1011.4 1011.1 0.8
24/12:00am 27.1 32.3 25.7 92 1.0 ENE 9 15 5 8 1011.5 1011.2 0.8
 
Date/Time
CST
Temp
°C
App
Temp
°C
Dew
Point
°C
Rel
Hum
%
Delta-T
°C
Wind Press
QNH
hPa
Press
MSL
hPa
Rain since
9am
mm
Dir  Spd
km/h
Gust
km/h
Spd
kts
Gust
kts
23/11:30pm 27.3 32.5 25.7 91 1.1 ENE 9 13 5 7 1011.6 1011.3 0.8
23/11:00pm 27.6 32.7 25.6 89 1.4 E 9 13 5 7 1011.7 1011.4 0.8
23/10:30pm 27.7 32.8 25.5 88 1.6 E 9 15 5 8 1011.4 1011.1 0.8
23/10:00pm 28.0 32.7 25.6 87 1.7 ENE 11 19 6 10 1011.1 1010.8 0.8
23/09:30pm 28.1 32.8 25.5 86 1.8 ENE 11 17 6 9 1010.8 1010.5 0.8
23/09:00pm 28.4 33.0 25.4 84 2.1 ENE 11 17 6 9 1010.1 1009.8 0.8
23/08:30pm 28.7 32.6 25.5 83 2.3 ENE 15 24 8 13 1009.6 1009.3 0.8
23/08:00pm 29.0 33.7 25.6 82 2.4 ENE 11 17 6 9 1009.4 1009.1 0.8
23/07:30pm 29.3 34.4 25.5 80 2.7 NE 9 13 5 7 1009.1 1008.8 0.8
23/07:00pm 29.7 34.4 25.0 76 3.3 NE 9 17 5 9 1008.9 1008.6 0.8
23/06:30pm 30.2 34.8 24.8 73 3.8 NE 9 17 5 9 1008.4 1008.1 0.8
23/06:00pm 30.7 34.4 24.6 70 4.3 NE 13 19 7 10 1007.9 1007.6 0.8
23/05:30pm 30.8 35.4 25.4 73 3.8 NNE 11 17 6 9 1007.7 1007.4 0.8
23/05:00pm 30.6 35.0 25.0 72 3.9 NNE 11 19 6 10 1007.6 1007.3 0.8
23/04:30pm 31.1 35.0 24.2 66 4.8 NE 11 20 6 11 1007.5 1007.2 0.8
23/04:00pm 31.4 35.3 24.3 66 5.0 E 11 19 6 10 1007.4 1007.1 0.8
23/03:30pm 31.8 36.5 25.6 69 4.4 ENE 11 17 6 9 1007.5 1007.2 0.8
23/03:00pm 31.6 35.6 23.7 63 5.5 ENE 9 13 5 7 1007.6 1007.3 0.8
23/02:30pm 31.5 36.0 23.9 64 5.3 ENE 7 15 4 8 1007.8 1007.5 0.8
23/02:00pm 31.2 35.3 23.3 63 5.5 ESE 7 13 4 7 1008.2 1007.9 0.8
23/01:30pm 29.8 34.5 24.9 75 3.4 ENE 9 15 5 8 1008.5 1008.2 0.8
23/01:00pm 30.7 34.9 24.1 68 4.6 SE 9 15 5 8 1008.9 1008.6 0.8
23/12:30pm 29.8 34.6 24.2 72 3.9 SW 6 13 3 7 1009.3 1009.0 0.8
23/12:00pm 28.4 33.3 24.4 79 2.8 ESE 6 9 3 5 1009.8 1009.5 0.8
23/11:30am 28.2 33.3 24.6 81 2.5 ESE 6 11 3 6 1010.0 1009.7 0.6
23/11:00am 27.5 33.8 25.3 88 1.5 WSW 2 7 1 4 1010.4 1010.1 0.6
23/10:51am 27.0 33.5 25.6 92 1.0 WSW 2 7 1 4 1010.5 1010.2 0.6
23/10:30am 25.9 30.0 24.5 92 1.0 SE 11 17 6 9 1010.7 1010.4 0.6
23/10:15am 27.3 33.2 24.7 86 1.8 SE 2 9 1 5 1010.8 1010.5 0.4
23/10:00am 26.6 31.2 24.8 90 1.3 ESE 9 13 5 7 1011.0 1010.7 0.4
23/09:57am 26.7 31.3 24.7 89 1.4 SE 9 13 5 7 1011.1 1010.8 0.0
23/09:30am 26.7 30.5 24.0 85 1.9 S 11 17 6 9 1011.0 1010.7 0.0
23/09:04am 26.8 31.1 24.3 86 1.7 SSE 9 13 5 7 1010.8 1010.5 0.0
23/09:00am 26.9 31.3 24.4 86 1.7 SSE 9 15 5 8 1010.7 1010.4 4.6
23/08:30am 26.6 30.8 24.1 86 1.7 SSE 9 13 5 7 1010.5 1010.2 4.6
23/08:13am 26.8 30.7 24.3 86 1.7 SSE 11 17 6 9 1010.4 1010.1 4.6
23/08:00am 26.6 30.2 24.3 87 1.6 SSE 13 15 7 8 1010.3 1010.0 4.6
23/07:30am 25.7 30.8 24.1 91 1.1 S 4 7 2 4 1010.0 1009.7 4.6
23/07:00am 25.2 29.7 24.0 93 0.8 S 7 11 4 6 1009.7 1009.4 4.6
23/06:30am 25.0 29.1 24.0 94 0.7 SSW 9 11 5 6 1009.3 1009.0 4.6
23/06:00am 25.1 29.7 24.1 94 0.7 S 7 9 4 5 1009.0 1008.7 4.6
23/05:30am 25.2 30.1 24.3 95 0.6 SSE 6 9 3 5 1008.7 1008.4 4.6
23/05:00am 25.0 31.0 24.3 96 0.5 CALM 0 0 0 0 1008.4 1008.1 4.6
23/04:30am 25.3 30.9 24.3 94 0.7 SSE 2 7 1 4 1007.9 1007.6 4.6
23/04:00am 25.7 30.6 24.7 94 0.7 SSE 7 9 4 5 1007.5 1007.2 4.4
23/03:30am 25.7 30.8 24.7 94 0.7 SE 6 9 3 5 1007.4 1007.1 4.4
23/03:00am 25.8 31.9 25.1 96 0.5 S 2 7 1 4 1007.4 1007.1 4.4
23/02:30am 26.0 32.8 25.5 97 0.4 CALM 0 0 0 0 1007.4 1007.1 4.4
23/02:00am 26.1 32.9 25.6 97 0.4 CALM 0 0 0 0 1007.8 1007.5 4.4
23/01:30am 26.2 33.0 25.5 96 0.5 CALM 0 0 0 0 1008.1 1007.8 4.4
23/01:00am 26.5 33.3 25.6 95 0.6 CALM 0 0 0 0 1008.5 1008.2 4.4
23/12:30am 26.7 33.4 26.0 96 0.5 NW 2 7 1 4 1008.8 1008.5 4.4
23/12:00am 26.7 33.7 25.8 95 0.6 CALM 0 0 0 0 1009.1 1008.8 4.4
 
Date/Time
CST
Temp
°C
App
Temp
°C
Dew
Point
°C
Rel
Hum
%
Delta-T
°C
Wind Press
QNH
hPa
Press
MSL
hPa
Rain since
9am
mm
Dir  Spd
km/h
Gust
km/h
Spd
kts
Gust
kts
22/11:30pm 26.7 32.5 25.8 95 0.6 WNW 6 9 3 5 1009.4 1009.1 4.4
22/11:00pm 26.9 34.0 26.0 95 0.6 CALM 0 0 0 0 1009.5 1009.2 4.4
22/10:30pm 26.7 33.7 25.8 95 0.6 CALM 0 0 0 0 1009.8 1009.5 4.4
22/10:00pm 26.8 33.8 25.9 95 0.6 CALM 0 0 0 0 1009.7 1009.4 4.4
22/09:30pm 26.5 33.1 25.3 93 0.8 CALM 0 4 0 2 1009.3 1009.0 4.4
22/09:00pm 26.3 31.6 25.3 94 0.7 E 7 11 4 6 1009.0 1008.7 4.4
22/08:43pm 26.3 30.2 24.9 92 1.0 SSW 13 20 7 11 1008.7 1008.4 4.4
22/08:30pm 26.1 28.9 24.3 90 1.2 SSW 17 37 9 20 1008.7 1008.4 4.4
22/08:20pm 27.5 29.9 23.7 80 2.6 SW 17 43 9 23 1008.7 1008.4 1.8
22/08:19pm 28.7 32.5 24.7 79 2.8 WSW 13 35 7 19 1008.7 1008.4 0.6
22/08:00pm 29.8 34.3 23.7 70 4.2 WNW 6 7 3 4 1007.8 1007.5 0.2
22/07:30pm 30.2 36.1 24.1 70 4.3 CALM 0 0 0 0 1007.6 1007.3 0.2
22/07:00pm 31.2 35.8 24.1 66 5.0 SW 7 9 4 5 1007.0 1006.7 0.2
22/06:30pm 32.6 35.6 22.7 56 6.8 SW 11 13 6 7 1006.7 1006.4 0.2
22/06:00pm 33.4 35.8 22.2 52 7.7 SSW 13 20 7 11 1006.4 1006.1 0.2
22/05:30pm 33.8 35.8 22.2 50 8.0 SW 15 19 8 10 1006.2 1005.9 0.2
22/05:00pm 33.6 35.2 22.1 51 7.9 S 17 20 9 11 1005.9 1005.6 0.2
22/04:30pm 33.3 35.4 22.4 52 7.5 S 15 20 8 11 1006.1 1005.8 0.2
22/04:00pm 33.0 35.5 22.4 53 7.3 SSW 13 24 7 13 1006.1 1005.8 0.2
22/03:30pm 33.3 35.8 22.4 52 7.5 SW 13 20 7 11 1006.1 1005.8 0.2
22/03:00pm 33.1 35.2 23.1 55 6.9 SSW 17 24 9 13 1006.5 1006.2 0.2
22/02:30pm 32.6 35.7 23.5 58 6.3 SSW 13 20 7 11 1006.9 1006.6 0.2
22/02:00pm 31.4 35.2 24.0 65 5.2 SSW 11 15 6 8 1007.6 1007.3 0.2
22/01:30pm 30.7 34.3 23.1 64 5.2 SW 9 17 5 9 1007.9 1007.6 0.2
22/01:00pm 30.0 30.3 17.8 48 7.8 SSW 13 17 7 9 1008.4 1008.1 0.2
22/12:30pm 29.5 32.4 22.5 66 4.8 SW 11 17 6 9 1008.8 1008.5 0.2
22/12:00pm 29.1 32.0 23.1 70 4.1 SSW 13 15 7 8 1009.3 1009.0 0.2
22/11:30am 28.1 30.6 23.2 74 3.4 SSW 15 20 8 11 1009.6 1009.3 0.0
22/11:00am 27.8 30.8 23.4 77 3.0 SW 13 17 7 9 1009.9 1009.6 0.0
22/10:30am 27.4 30.8 23.4 79 2.7 SW 11 17 6 9 1010.1 1009.8 0.0
22/10:00am 27.0 30.6 23.7 82 2.3 SSW 11 15 6 8 1010.2 1009.9 0.0
22/09:30am 26.5 29.4 23.2 82 2.3 SSW 13 17 7 9 1010.3 1010.0 0.0
22/09:00am 26.3 29.3 23.4 84 2.0 SSW 13 15 7 8 1010.4 1010.1 0.6
22/08:30am 26.1 29.6 23.6 86 1.7 SW 11 15 6 8 1010.2 1009.9 0.6
22/08:00am 25.5 29.1 23.7 90 1.2 SSW 11 13 6 7 1009.9 1009.6 0.6
22/07:48am 25.3 29.0 23.9 92 1.0 SW 11 15 6 8 1009.8 1009.5 0.6
22/07:30am 25.0 29.6 24.1 95 0.6 WSW 7 13 4 7 1009.6 1009.3 0.6
22/07:00am 24.3 28.3 23.8 97 0.3 SW 9 13 5 7 1009.2 1008.9 0.6
22/06:30am 24.0 29.2 23.5 97 0.3 SW 2 7 1 4 1008.9 1008.6 0.6
22/06:00am 23.8 28.0 23.5 98 0.2 WSW 7 9 4 5 1008.7 1008.4 0.6
22/05:30am 23.6 27.6 23.1 97 0.3 WSW 7 9 4 5 1008.4 1008.1 0.6
22/05:00am 23.7 27.9 23.2 97 0.3 WNW 6 7 3 4 1008.0 1007.7 0.6
22/04:30am 23.8 27.9 23.3 97 0.3 WNW 7 7 4 4 1007.5 1007.2 0.6
22/04:00am 24.0 28.3 23.3 96 0.5 W 6 7 3 4 1007.2 1006.9 0.6
22/03:30am 24.1 28.5 23.4 96 0.5 W 6 7 3 4 1007.1 1006.8 0.6
22/03:00am 24.3 28.5 23.4 95 0.6 SW 7 9 4 5 1006.9 1006.6 0.6
22/02:30am 24.3 28.6 23.6 96 0.5 SW 7 11 4 6 1007.1 1006.8 0.6
22/02:00am 24.3 28.6 23.6 96 0.5 WSW 7 9 4 5 1007.4 1007.1 0.6
22/01:31am 24.5 28.8 23.6 95 0.6 SSW 7 9 4 5 1007.7 1007.4 0.6
22/01:30am 24.6 28.9 23.7 95 0.6 SSW 7 9 4 5 1007.7 1007.4 0.6
22/01:00am 24.7 29.3 23.8 95 0.6 SSW 6 7 3 4 1008.0 1007.7 0.6
22/12:52am 24.7 30.1 23.8 95 0.6 WSW 2 7 1 4 1008.1 1007.8 0.6
22/12:30am 24.5 30.1 23.5 94 0.7 CALM 0 0 0 0 1008.3 1008.0 0.6
22/12:00am 24.7 30.4 23.8 95 0.6 CALM 0 0 0 0 1008.5 1008.2 0.6
 
Date/Time
CST
Temp
°C
App
Temp
°C
Dew
Point
°C
Rel
Hum
%
Delta-T
°C
Wind Press
QNH
hPa
Press
MSL
hPa
Rain since
9am
mm
Dir  Spd
km/h
Gust
km/h
Spd
kts
Gust
kts
21/11:30pm 24.8 30.5 23.8 94 0.7 CALM 0 0 0 0 1008.7 1008.4 0.6
21/11:00pm 25.0 29.5 23.6 92 1.0 WSW 6 7 3 4 1008.9 1008.6 0.6
21/10:30pm 25.3 29.8 23.7 91 1.1 SW 6 7 3 4 1009.0 1008.7 0.6
21/10:00pm 25.5 30.0 23.6 89 1.3 SSW 6 7 3 4 1009.0 1008.7 0.6
21/09:30pm 25.6 29.4 23.5 88 1.4 SW 9 13 5 7 1008.8 1008.5 0.6
21/09:00pm 26.1 29.1 23.4 85 1.8 SW 13 19 7 10 1008.7 1008.4 0.6
21/08:30pm 26.6 29.1 23.1 81 2.4 SW 15 19 8 10 1008.8 1008.5 0.6
21/08:00pm 27.1 29.2 23.1 79 2.7 SSW 17 24 9 13 1008.5 1008.2 0.6
21/07:30pm 27.4 31.5 24.5 84 2.0 SSW 11 17 6 9 1008.3 1008.0 0.6
21/07:00pm 27.2 29.6 23.7 81 2.4 S 17 32 9 17 1007.7 1007.4 0.6
21/06:30pm 30.0 33.8 23.4 67 4.6 SW 9 13 5 7 1007.1 1006.8 0.0
21/06:00pm 30.5 32.8 22.7 63 5.3 SSW 15 20 8 11 1006.6 1006.3 0.0

Other Formats:

Comma delimited format used in spreadsheet applications
http://www.bom.gov.au/fwo/IDD60801/IDD60801.94239.axf

JavaScript Object Notation format (JSON) in row-major order
http://www.bom.gov.au/fwo/IDD60801/IDD60801.94239.json